Time;durP1;ratioP1;P1;durP2;ratioP2;P2;SDS_P1;SDS_P2;PMS_P1;PMS_P2;Temp;Humidity;BMP_temperature;BMP_pressure;BME280_temperature;BME280_humidity;BME280_pressure;Samples;Min_cycle;Max_cycle;Signal;HPM_P1;HPM_P2
2023/02/23 00:01:28;;;;;;;54.70;31.27;;;;;;;8.35;100.00;100959.44;5042008;28;20047;-72
2023/02/23 00:03:58;;;;;;;58.92;32.40;;;;;;;8.35;100.00;100963.78;5027485;28;20032;-71
2023/02/23 00:06:25;;;;;;;56.08;30.17;;;;;;;8.35;100.00;100966.38;5040530;28;20132;-71
2023/02/23 00:08:51;;;;;;;59.88;31.48;;;;;;;8.35;100.00;100969.78;5040031;28;20037;-71
2023/02/23 00:11:18;;;;;;;56.35;31.63;;;;;;;8.35;100.00;100966.38;5029200;28;20041;-71
2023/02/23 00:13:45;;;;;;;62.03;32.80;;;;;;;8.35;100.00;100967.19;5029098;28;20064;-71
2023/02/23 00:16:18;;;;;;;61.78;32.85;;;;;;;8.35;100.00;100961.22;5041392;28;20046;-71
2023/02/23 00:18:59;;;;;;;61.47;33.20;;;;;;;8.34;100.00;100964.72;5028104;28;20044;-71
2023/02/23 00:21:33;;;;;;;58.30;32.78;;;;;;;8.33;100.00;100961.34;5043396;28;20075;-71
2023/02/23 00:24:03;;;;;;;59.15;32.97;;;;;;;8.33;100.00;100968.28;5041818;28;20044;-71
2023/02/23 00:26:33;;;;;;;55.72;31.90;;;;;;;8.31;100.00;100958.09;5035694;28;20067;-71
2023/02/23 00:28:59;;;;;;;61.50;33.53;;;;;;;8.32;100.00;100953.72;5026981;28;20061;-71
2023/02/23 00:31:27;;;;;;;66.00;34.47;;;;;;;8.32;100.00;100959.69;5012122;28;20053;-71
2023/02/23 00:33:55;;;;;;;61.67;34.00;;;;;;;8.32;100.00;100958.91;5024385;28;20053;-71
2023/02/23 00:36:24;;;;;;;64.25;34.97;;;;;;;8.33;100.00;100957.94;5023294;28;20041;-71
2023/02/23 00:38:55;;;;;;;62.60;33.15;;;;;;;8.32;100.00;100958.91;5013561;28;20036;-71
2023/02/23 00:41:24;;;;;;;58.85;31.98;;;;;;;8.30;100.00;100953.06;5022807;28;20045;-71
2023/02/23 00:43:53;;;;;;;56.65;31.55;;;;;;;8.29;100.00;100951.44;5029173;28;21798;-71
2023/02/23 00:46:21;;;;;;;58.70;31.95;;;;;;;8.27;100.00;100951.56;5012606;28;20408;-71
2023/02/23 00:48:48;;;;;;;57.45;32.20;;;;;;;8.26;100.00;100941.38;5022841;28;20119;-71
2023/02/23 00:51:14;;;;;;;53.58;29.80;;;;;;;8.24;100.00;100944.06;5009564;28;20045;-71
2023/02/23 00:53:41;;;;;;;55.95;31.10;;;;;;;8.23;100.00;100950.22;5009460;28;20390;-71
2023/02/23 00:56:10;;;;;;;53.88;31.20;;;;;;;8.21;100.00;100946.13;5027562;28;20503;-71
2023/02/23 00:58:36;;;;;;;55.10;31.67;;;;;;;8.22;100.00;100952.94;5010888;28;20095;-71
2023/02/23 01:01:05;;;;;;;52.88;31.52;;;;;;;8.21;100.00;100949.50;4998993;28;20037;-71
2023/02/23 01:03:31;;;;;;;57.25;31.25;;;;;;;8.20;100.00;100953.06;5025495;28;20044;-71
2023/02/23 01:06:04;;;;;;;65.05;34.22;;;;;;;8.22;100.00;100945.19;5045236;28;20039;-71
2023/02/23 01:08:30;;;;;;;;;;;;;;;8.17;100.00;100948.16;5020441;28;20116;-71
2023/02/23 01:10:56;;;;;;;60.63;32.72;;;;;;;8.16;100.00;100952.50;5020253;28;19917;-71
2023/02/23 01:13:25;;;;;;;59.42;33.10;;;;;;;8.16;100.00;100944.75;5018590;28;20033;-71
2023/02/23 01:15:51;;;;;;;60.30;32.75;;;;;;;8.17;100.00;100953.31;5042985;28;20044;-71
2023/02/23 01:18:18;;;;;;;62.65;34.35;;;;;;;8.18;100.00;100952.38;5035863;28;20024;-71
2023/02/23 01:20:44;;;;;;;59.38;34.17;;;;;;;8.17;100.00;100949.00;5023439;28;20037;-71
2023/02/23 01:23:12;;;;;;;58.70;32.42;;;;;;;8.16;100.00;100957.69;5017598;28;20061;-70
2023/02/23 01:25:38;;;;;;;62.20;34.35;;;;;;;8.17;100.00;100953.31;5021465;28;20052;-71
2023/02/23 01:28:03;;;;;;;59.38;32.95;;;;;;;8.17;100.00;100958.47;5018593;28;20041;-71
2023/02/23 01:30:29;;;;;;;57.05;32.13;;;;;;;8.16;100.00;100954.28;5019298;28;20038;-71
2023/02/23 01:32:55;;;;;;;67.32;32.33;;;;;;;8.16;100.00;100957.69;5024349;28;20021;-71
2023/02/23 01:35:21;;;;;;;55.22;32.42;;;;;;;8.15;100.00;100953.44;5018728;28;20037;-71
2023/02/23 01:37:48;;;;;;;66.72;34.70;;;;;;;8.16;100.00;100959.47;5015384;28;20031;-71
2023/02/23 01:40:15;;;;;;;61.85;33.28;;;;;;;8.15;100.00;100955.22;5020338;28;20517;-70
2023/02/23 01:42:45;;;;;;;61.00;33.42;;;;;;;8.14;100.00;100963.94;4998792;28;20079;-71
2023/02/23 01:45:36;;;;;;;61.15;34.40;;;;;;;8.13;100.00;100957.13;5016536;28;20040;-71
2023/02/23 01:48:05;;;;;;;63.08;34.33;;;;;;;8.13;100.00;100957.13;4993761;28;20116;-71
2023/02/23 01:50:38;;;;;;;66.63;34.65;;;;;;;8.11;100.00;100954.69;5033445;28;20037;-70
2023/02/23 01:53:04;;;;;;;63.70;34.25;;;;;;;8.13;100.00;100955.34;5020216;28;20025;-72
2023/02/23 01:55:30;;;;;;;66.68;34.88;;;;;;;8.12;100.00;100950.34;5023364;28;20033;-71
2023/02/23 01:58:05;;;;;;;65.15;34.95;;;;;;;8.11;100.00;100952.09;5037187;28;20032;-71
2023/02/23 02:00:35;;;;;;;;;;;;;;;8.11;100.00;100951.28;5018017;28;20037;-71
2023/02/23 02:03:07;;;;;;;70.68;35.83;;;;;;;8.10;100.00;100950.47;5024494;28;19916;-71
2023/02/23 02:05:37;;;;;;;71.40;34.95;;;;;;;8.09;100.00;100948.84;5016854;28;20518;-71
2023/02/23 02:08:05;;;;;;;74.22;36.40;;;;;;;8.09;100.00;100948.03;5026896;28;20029;-70
2023/02/23 02:10:42;;;;;;;67.75;36.05;;;;;;;8.09;100.00;100942.88;5023788;28;20033;-71
2023/02/23 02:13:13;;;;;;;75.55;37.75;;;;;;;8.09;100.00;100955.78;5019331;28;20033;-71
2023/02/23 02:16:04;;;;;;;76.22;37.42;;;;;;;8.07;100.00;100945.56;5009183;28;20072;-71
2023/02/23 02:18:52;;;;;;;69.97;36.70;;;;;;;8.07;100.00;100944.78;5026141;28;20036;-70
2023/02/23 02:21:38;;;;;;;72.80;37.60;;;;;;;8.06;100.00;100954.28;5027072;28;20198;-71
2023/02/23 02:24:32;;;;;;;70.35;37.28;;;;;;;8.05;100.00;100949.25;5023137;28;20102;-71
2023/02/23 02:27:21;;;;;;;79.28;38.03;;;;;;;8.04;100.00;100948.41;5035652;28;20107;-70
2023/02/23 02:30:03;;;;;;;70.00;36.55;;;;;;;8.04;100.00;100947.63;5023142;28;20064;-71
2023/02/23 02:33:09;;;;;;;78.97;38.65;;;;;;;8.02;100.00;100942.56;5023138;28;20873;-71
2023/02/23 02:35:53;;;;;;;73.40;38.10;;;;;;;8.01;100.00;100950.50;4999518;28;20129;-71
2023/02/23 02:38:36;;;;;;;79.75;39.90;;;;;;;7.98;100.00;100946.38;5020549;28;20033;-71
2023/02/23 02:41:17;;;;;;;80.05;39.03;;;;;;;7.95;100.00;100955.22;5008917;28;20455;-71
2023/02/23 02:44:04;;;;;;;83.75;38.40;;;;;;;7.95;100.00;100944.91;5019860;28;20035;-71
2023/02/23 02:46:37;;;;;;;89.10;40.78;;;;;;;7.94;100.00;100948.41;5015420;28;20498;-71
2023/02/23 02:49:12;;;;;;;79.43;39.30;;;;;;;7.95;100.00;100946.69;5036333;28;20041;-71
2023/02/23 02:51:51;;;;;;;83.35;39.13;;;;;;;7.94;100.00;100943.25;5032098;28;20078;-71
2023/02/23 02:54:27;;;;;;;82.63;40.55;;;;;;;7.96;100.00;100940.53;5025963;28;20082;-71
2023/02/23 02:56:56;;;;;;;81.20;37.63;;;;;;;7.96;100.00;100937.97;5035064;28;20037;-71
2023/02/23 04:17:36;;;;;;;94.45;43.00;;;;;;;7.70;100.00;100977.19;5026298;28;20065;-71
2023/02/23 04:20:02;;;;;;;81.68;41.33;;;;;;;7.70;100.00;100973.81;5021957;28;20033;-72
2023/02/23 04:22:28;;;;;;;87.63;39.90;;;;;;;7.71;100.00;100972.88;5023706;28;20116;-71
2023/02/23 04:24:53;;;;;;;88.45;41.25;;;;;;;7.72;100.00;100974.47;5037934;28;20029;-71
2023/02/23 04:27:19;;;;;;;88.78;41.33;;;;;;;7.72;100.00;100975.31;5020805;28;20409;-71
2023/02/23 04:29:45;;;;;;;84.47;42.33;;;;;;;7.73;100.00;100970.97;5026583;28;20044;-71
2023/02/23 04:32:16;;;;;;;83.75;41.38;;;;;;;7.73;100.00;100971.78;5023673;28;20036;-71
2023/02/23 04:34:42;;;;;;;87.82;43.45;;;;;;;7.72;100.00;100974.47;5027463;28;20403;-71
2023/02/23 04:37:08;;;;;;;88.55;41.10;;;;;;;7.71;100.00;100978.03;5009118;28;20071;-71
2023/02/23 04:39:34;;;;;;;87.30;41.25;;;;;;;7.71;100.00;100976.25;5030295;28;20033;-71
2023/02/23 04:42:00;;;;;;;84.85;39.75;;;;;;;7.71;100.00;100971.09;5015503;28;20056;-72
2023/02/23 04:44:25;;;;;;;90.35;41.17;;;;;;;7.71;100.00;100967.69;5026710;28;20036;-71
2023/02/23 04:46:51;;;;;;;87.88;41.88;;;;;;;7.70;100.00;100979.78;5027623;28;20546;-71
2023/02/23 04:49:16;;;;;;;82.88;41.10;;;;;;;7.70;100.00;100978.97;5025249;28;20458;-71
2023/02/23 04:51:42;;;;;;;87.95;42.03;;;;;;;7.69;100.00;100975.56;5027109;28;20082;-72
2023/02/23 04:54:08;;;;;;;88.75;40.22;;;;;;;7.69;100.00;100974.75;5038901;28;20029;-71
2023/02/23 04:56:34;;;;;;;93.43;41.47;;;;;;;7.68;100.00;100978.28;5025182;28;20555;-72
2023/02/23 04:59:00;;;;;;;87.78;41.40;;;;;;;7.68;100.00;100988.59;5026627;28;20039;-71
2023/02/23 05:01:26;;;;;;;92.70;41.35;;;;;;;7.66;100.00;100980.19;5039076;28;20098;-71
2023/02/23 05:03:52;;;;;;;84.75;42.78;;;;;;;7.66;100.00;100982.75;5023733;28;20029;-71
2023/02/23 05:06:17;;;;;;;91.88;42.40;;;;;;;7.66;100.00;100986.16;5020642;28;20042;-71
2023/02/23 05:08:44;;;;;;;90.32;40.85;;;;;;;7.66;100.00;100986.16;5023499;28;20110;-71
2023/02/23 05:11:10;;;;;;;92.82;41.03;;;;;;;7.65;100.00;100992.28;5027017;28;20437;-71
2023/02/23 05:13:36;;;;;;;91.97;42.67;;;;;;;7.64;100.00;100988.06;5010912;28;20402;-71
2023/02/23 05:16:01;;;;;;;90.43;41.92;;;;;;;7.64;100.00;100992.41;5026825;28;20125;-72
2023/02/23 05:18:27;;;;;;;90.18;41.75;;;;;;;7.63;100.00;100989.00;5004451;28;20028;-71
2023/02/23 05:20:59;;;;;;;90.68;41.13;;;;;;;7.63;100.00;100989.00;5028597;28;20574;-71
2023/02/23 05:23:25;;;;;;;;;;;;;;;7.63;100.00;100989.00;5032909;28;20885;-71
2023/02/23 05:25:50;;;;;;;96.15;41.10;;;;;;;7.62;100.00;100989.94;5028377;28;19917;-72
2023/02/23 05:28:16;;;;;;;95.35;42.17;;;;;;;7.62;100.00;100995.13;5021203;23;20069;-79
2023/02/23 05:30:42;;;;;;;94.63;42.78;;;;;;;7.63;100.00;100995.91;4993703;28;20030;-79
2023/02/23 05:33:07;;;;;;;88.88;41.20;;;;;;;7.64;100.00;100998.38;4994608;28;20169;-79
2023/02/23 05:35:33;;;;;;;103.05;45.13;;;;;;;7.63;100.00;100998.50;4972892;28;20035;-79
2023/02/23 05:37:58;;;;;;;104.15;46.38;;;;;;;7.59;100.00;100998.78;4962581;28;20034;-78
2023/02/23 05:40:24;;;;;;;98.43;44.75;;;;;;;7.56;100.00;100995.66;4989371;28;20061;-80
2023/02/23 05:42:49;;;;;;;92.53;43.85;;;;;;;7.54;100.00;101003.50;4992560;28;20037;-79
2023/02/23 05:45:15;;;;;;;103.57;45.10;;;;;;;7.54;100.00;101003.50;4964413;28;20034;-79
2023/02/23 05:47:40;;;;;;;104.53;45.75;;;;;;;7.55;100.00;101010.31;4976214;28;20484;-80
2023/02/23 05:50:08;;;;;;;105.05;45.38;;;;;;;7.53;100.00;100995.91;4958764;28;20037;-78
2023/02/23 05:52:40;;;;;;;95.95;43.85;;;;;;;7.54;100.00;101007.88;4999289;28;20019;-79
2023/02/23 05:55:10;;;;;;;89.38;43.22;;;;;;;7.51;100.00;101006.34;4992911;28;20030;-79
2023/02/23 05:57:36;;;;;;;85.95;43.45;;;;;;;7.51;100.00;101008.94;4998615;28;20026;-79
2023/02/23 06:00:04;;;;;;;89.47;42.83;;;;;;;7.48;100.00;101006.63;4974545;28;20112;-79
2023/02/23 06:02:30;;;;;;;89.40;40.40;;;;;;;7.51;100.00;101015.84;4982423;28;20381;-79
2023/02/23 06:04:55;;;;;;;91.95;44.47;;;;;;;7.51;100.00;101013.28;4961355;28;20026;-78
2023/02/23 06:07:20;;;;;;;85.75;42.80;;;;;;;7.49;100.00;101018.56;4989746;28;20471;-79
2023/02/23 06:09:46;;;;;;;84.93;41.05;;;;;;;7.49;100.00;101017.75;4990280;28;20046;-79
2023/02/23 06:12:11;;;;;;;90.82;43.25;;;;;;;7.49;100.00;101020.34;4989028;28;20042;-78
2023/02/23 06:14:37;;;;;;;87.60;42.38;;;;;;;7.50;100.00;101027.16;4975757;28;20030;-80
2023/02/23 06:17:02;;;;;;;91.72;42.17;;;;;;;7.50;100.00;101025.38;4972137;28;20035;-79
2023/02/23 06:19:28;;;;;;;84.47;40.92;;;;;;;7.48;100.00;101026.44;4976050;28;20030;-79
2023/02/23 06:21:53;;;;;;;88.25;42.05;;;;;;;7.54;100.00;101033.66;4983759;28;20378;-78
2023/02/23 06:24:20;;;;;;;79.15;38.92;;;;;;;7.52;100.00;101026.06;4974610;28;20042;-79
2023/02/23 06:26:46;;;;;;;76.05;39.53;;;;;;;7.49;100.00;101031.47;4974585;28;20057;-79
2023/02/23 06:29:12;;;;;;;72.20;37.70;;;;;;;7.47;100.00;101028.19;4991292;28;20034;-79
2023/02/23 06:31:38;;;;;;;77.75;37.95;;;;;;;7.48;100.00;101029.84;4974101;28;20038;-79
2023/02/23 06:34:03;;;;;;;80.38;39.75;;;;;;;7.49;100.00;101036.63;4995520;28;20057;-79
2023/02/23 06:36:29;;;;;;;71.63;38.53;;;;;;;7.48;100.00;101031.59;4976905;28;20442;-80
2023/02/23 06:38:58;;;;;;;75.00;37.65;;;;;;;7.48;100.00;101042.75;4973810;28;20116;-79
2023/02/23 06:41:24;;;;;;;69.68;37.03;;;;;;;7.48;100.00;101044.50;4994574;28;20097;-80
2023/02/23 06:43:50;;;;;;;72.05;37.60;;;;;;;7.48;100.00;101050.50;4981946;28;20424;-79
2023/02/23 06:46:15;;;;;;;70.35;37.33;;;;;;;7.45;100.00;101050.75;4989039;28;20073;-79
2023/02/23 06:48:42;;;;;;;77.10;38.15;;;;;;;7.49;100.00;101057.28;4994347;28;20027;-79
2023/02/23 06:51:08;;;;;;;80.50;40.13;;;;;;;7.54;100.00;101062.06;4959540;28;20042;-79
2023/02/23 06:53:34;;;;;;;82.43;39.70;;;;;;;7.50;100.00;101060.69;4981738;28;20069;-79
2023/02/23 06:56:00;;;;;;;83.13;39.70;;;;;;;7.44;100.00;101064.59;4990496;28;20066;-79
2023/02/23 06:58:27;;;;;;;85.30;38.03;;;;;;;7.44;100.00;101063.75;5008304;28;20033;-79
2023/02/23 07:00:55;;;;;;;96.40;40.08;;;;;;;7.56;100.00;101063.56;4979746;28;20035;-79
2023/02/23 07:03:24;;;;;;;91.05;39.97;;;;;;;7.55;100.00;101063.69;4992041;28;20030;-79
2023/02/23 07:05:50;;;;;;;92.32;39.63;;;;;;;7.60;100.00;101064.13;5008220;28;20038;-79
2023/02/23 07:08:17;;;;;;;93.68;41.05;;;;;;;7.48;100.00;101059.97;4972846;28;20034;-79
2023/02/23 07:10:43;;;;;;;95.82;40.95;;;;;;;7.45;100.00;101068.00;4971237;28;20467;-79
2023/02/23 07:13:08;;;;;;;100.70;40.92;;;;;;;7.50;100.00;101074.41;4990655;28;20069;-80
2023/02/23 07:15:35;;;;;;;106.90;41.42;;;;;;;7.37;100.00;101078.97;4992776;28;20096;-80
2023/02/23 07:18:01;;;;;;;97.88;40.75;;;;;;;7.31;100.00;101084.59;4960652;28;20034;-80
2023/02/23 07:20:27;;;;;;;101.28;40.53;;;;;;;7.33;100.00;101083.56;4991099;28;20398;-80
2023/02/23 07:22:53;;;;;;;96.43;41.13;;;;;;;7.29;100.00;101089.06;4989285;28;20038;-79
2023/02/23 07:25:19;;;;;;;107.50;43.60;;;;;;;7.31;100.00;101090.59;4983941;28;20030;-80
2023/02/23 07:27:45;;;;;;;103.50;41.88;;;;;;;7.40;100.00;101099.31;4969375;28;20244;-80
2023/02/23 07:30:12;;;;;;;115.45;44.38;;;;;;;7.37;100.00;101094.44;4974770;28;20431;-81
2023/02/23 07:32:37;;;;;;;114.03;42.28;;;;;;;7.35;100.00;101096.34;4990555;28;20033;-81
2023/02/23 07:35:04;;;;;;;111.38;44.30;;;;;;;7.36;100.00;101097.94;4998373;28;20030;-81
2023/02/23 07:37:30;;;;;;;116.13;45.35;;;;;;;7.35;100.00;101099.72;5009394;28;20026;-80
2023/02/23 07:39:56;;;;;;;119.18;46.85;;;;;;;7.40;100.00;101102.75;4983837;28;20065;-79
2023/02/23 07:42:21;;;;;;;121.68;44.70;;;;;;;7.43;100.00;101111.16;4987227;28;20043;-80
2023/02/23 07:44:46;;;;;;;122.82;44.90;;;;;;;7.34;100.00;101092.91;4992438;28;20400;-79
2023/02/23 07:47:12;;;;;;;119.85;45.28;;;;;;;7.31;100.00;101106.09;4992451;28;20030;-79
2023/02/23 07:49:37;;;;;;;117.38;43.05;;;;;;;7.27;100.00;101109.03;4993162;28;20078;-81
2023/02/23 07:52:03;;;;;;;128.60;45.28;;;;;;;7.26;100.00;101113.38;4981414;28;20063;-81
2023/02/23 07:54:28;;;;;;;121.75;45.92;;;;;;;7.32;100.00;101114.63;4996352;28;20464;-81
2023/02/23 07:56:54;;;;;;;127.95;45.30;;;;;;;7.39;100.00;101118.34;4963667;28;20108;-81
2023/02/23 07:59:19;;;;;;;126.65;44.80;;;;;;;7.39;100.00;101119.16;4961002;28;20037;-79
2023/02/23 08:01:45;;;;;;;115.43;44.33;;;;;;;7.37;100.00;101117.66;4989612;28;20042;-80
2023/02/23 08:04:11;;;;;;;118.15;42.22;;;;;;;7.38;100.00;101114.13;4989691;28;20050;-81
2023/02/23 08:06:36;;;;;;;120.45;44.55;;;;;;;7.43;100.00;101124.06;4976296;28;20050;-80
2023/02/23 08:09:03;;;;;;;111.78;42.00;;;;;;;7.42;100.00;101128.38;4991166;28;20033;-81
2023/02/23 08:11:29;;;;;;;121.70;43.03;;;;;;;7.39;100.00;101120.91;4973851;28;20109;-80
2023/02/23 08:13:58;;;;;;;118.07;42.80;;;;;;;7.36;100.00;101124.56;4965965;28;20555;-81
2023/02/23 08:16:26;;;;;;;129.93;43.70;;;;;;;7.35;100.00;101125.53;5003234;28;20073;-80
2023/02/23 08:18:52;;;;;;;114.75;40.63;;;;;;;7.35;100.00;101129.88;4961579;28;20038;-81
2023/02/23 08:21:18;;;;;;;128.10;43.65;;;;;;;7.39;100.00;101133.81;4974364;28;20046;-81
2023/02/23 08:23:43;;;;;;;112.88;42.78;;;;;;;7.39;100.00;101133.81;4973476;28;20029;-81
2023/02/23 08:26:10;;;;;;;127.00;44.30;;;;;;;7.36;100.00;101139.22;4993072;28;20038;-80
2023/02/23 08:28:36;;;;;;;115.22;41.10;;;;;;;7.35;100.00;101135.84;5008590;28;20030;-81
2023/02/23 08:31:08;;;;;;;120.18;42.72;;;;;;;7.48;100.00;101147.72;4990584;28;20050;-80
2023/02/23 08:33:34;;;;;;;121.00;41.75;;;;;;;7.41;100.00;101144.84;4989254;28;20035;-80
2023/02/23 08:36:01;;;;;;;127.72;42.95;;;;;;;7.39;100.00;101154.47;4993549;28;20049;-80
2023/02/23 08:38:27;;;;;;;120.63;41.25;;;;;;;7.41;100.00;101157.72;4976473;28;20061;-81
2023/02/23 08:40:53;;;;;;;124.65;44.90;;;;;;;7.41;100.00;101157.72;5003892;28;20046;-81
2023/02/23 08:43:19;;;;;;;126.10;42.60;;;;;;;7.47;100.00;101154.63;4963326;28;20050;-81
2023/02/23 08:45:44;;;;;;;122.80;44.33;;;;;;;7.41;100.00;101153.38;4971432;28;20608;-81
2023/02/23 08:48:10;;;;;;;123.20;42.55;;;;;;;7.53;100.00;101161.06;4987868;28;20037;-80
2023/02/23 08:50:35;;;;;;;124.55;44.20;;;;;;;7.54;100.00;101163.50;4978422;28;20102;-81
2023/02/23 08:53:01;;;;;;;118.97;42.83;;;;;;;7.53;100.00;101167.03;4994530;28;20626;-81
2023/02/23 08:55:26;;;;;;;116.00;39.97;;;;;;;7.55;100.00;101160.00;4959168;28;20034;-81
2023/02/23 08:57:52;;;;;;;117.75;42.47;;;;;;;7.55;100.00;101159.16;4973644;28;20173;-81
2023/02/23 09:00:18;;;;;;;117.22;40.63;;;;;;;7.46;100.00;101147.03;4978436;28;20038;-81
2023/02/23 09:02:47;;;;;;;130.13;43.45;;;;;;;7.54;100.00;101158.34;4976498;28;20380;-81
2023/02/23 09:05:13;;;;;;;106.47;39.80;;;;;;;7.69;100.00;101156.25;4972966;28;20035;-81
2023/02/23 09:07:39;;;;;;;117.65;41.88;;;;;;;7.57;100.00;101163.28;4992637;28;20031;-80
2023/02/23 09:10:06;;;;;;;116.70;40.78;;;;;;;7.54;100.00;101162.72;4958615;28;20030;-80
2023/02/23 09:12:31;;;;;;;128.05;44.65;;;;;;;7.51;100.00;101163.75;4987540;28;20057;-81
2023/02/23 09:14:57;;;;;;;125.28;44.35;;;;;;;7.54;100.00;101170.44;4994227;28;20034;-81
2023/02/23 09:17:22;;;;;;;117.05;43.58;;;;;;;7.51;100.00;101173.28;4975010;28;20104;-81
2023/02/23 09:19:49;;;;;;;112.45;41.60;;;;;;;7.49;100.00;101172.59;4973909;28;20046;-81
2023/02/23 09:22:17;;;;;;;117.50;43.22;;;;;;;7.44;100.00;101172.97;4988334;28;20042;-81
2023/02/23 09:24:43;;;;;;;114.22;41.13;;;;;;;7.62;100.00;101175.78;5005045;28;20501;-81
2023/02/23 09:27:11;;;;;;;116.95;41.30;;;;;;;7.60;100.00;101175.91;4988921;28;20129;-81
2023/02/23 09:29:40;;;;;;;115.50;41.45;;;;;;;7.62;100.00;101182.72;4988850;28;20031;-80
2023/02/23 09:32:06;;;;;;;117.43;41.03;;;;;;;7.69;100.00;101182.06;4986064;28;20079;-81
2023/02/23 09:34:31;;;;;;;119.75;43.03;;;;;;;7.70;100.00;101178.53;4975771;28;20035;-81
2023/02/23 09:36:57;;;;;;;116.60;42.72;;;;;;;7.79;100.00;101180.34;4991227;28;20027;-80
2023/02/23 09:39:22;;;;;;;106.95;41.15;;;;;;;7.74;100.00;101187.69;4981209;28;20511;-82
2023/02/23 09:42:09;;;;;;;105.65;39.28;;;;;;;7.83;100.00;101186.06;4974960;28;20035;-81
2023/02/23 09:45:01;;;;;;;112.68;41.53;;;;;;;7.81;100.00;101190.56;4995574;28;20029;-81
2023/02/23 09:47:27;;;;;;;111.77;38.93;;;;;;;7.75;100.00;101191.06;4975317;28;20041;-82
2023/02/23 09:49:53;;;;;;;111.18;39.85;;;;;;;7.84;100.00;101195.47;4996577;28;20037;-81
2023/02/23 09:52:26;;;;;;;116.53;40.67;;;;;;;7.86;100.00;101193.56;4973944;28;20053;-82
2023/02/23 09:54:52;;;;;;;114.97;40.60;;;;;;;7.70;100.00;101198.38;4958654;28;20066;-82
2023/02/23 09:57:23;;;;;;;109.88;39.20;;;;;;;7.66;100.00;101200.38;4987796;28;20035;-81
2023/02/23 09:59:49;;;;;;;113.28;39.58;;;;;;;7.78;100.00;101207.13;4974985;28;20116;-80
2023/02/23 10:02:23;;;;;;;109.75;39.35;;;;;;;7.88;100.00;101207.16;4982283;28;20050;-82
2023/02/23 10:04:55;;;;;;;107.32;40.15;;;;;;;7.79;100.00;101210.53;5007342;28;20057;-83
2023/02/23 10:07:30;;;;;;;114.47;40.95;;;;;;;7.93;100.00;101214.53;4979584;28;20452;-82
2023/02/23 10:10:07;;;;;;;105.93;39.40;;;;;;;7.91;100.00;101216.41;4994106;28;20045;-81
2023/02/23 10:12:37;;;;;;;106.07;38.25;;;;;;;7.94;100.00;101213.59;4993213;28;20038;-81
2023/02/23 10:15:29;;;;;;;97.50;37.60;;;;;;;7.95;100.00;101216.03;4990529;28;20044;-81
2023/02/23 10:18:10;;;;;;;103.75;36.83;;;;;;;7.87;100.00;101213.28;4985612;28;20050;-81
2023/02/23 10:20:42;;;;;;;93.97;35.58;;;;;;;7.78;100.00;101221.81;4975451;28;20100;-82
2023/02/23 10:23:20;;;;;;;104.40;36.67;;;;;;;7.73;100.00;101224.75;5006075;28;20038;-81
2023/02/23 10:25:49;;;;;;;97.03;33.80;;;;;;;7.70;100.00;101227.56;4980791;28;20042;-81
2023/02/23 10:28:19;;;;;;;90.20;35.85;;;;;;;7.61;100.00;101236.09;4994253;28;20045;-79
2023/02/23 10:30:44;;;;;;;92.75;32.33;;;;;;;7.70;100.00;101232.75;4986628;28;20042;-79
2023/02/23 10:33:15;;;;;;;76.28;31.50;;;;;;;7.68;100.00;101237.22;4982226;28;20440;-82
2023/02/23 10:35:40;;;;;;;84.15;30.40;;;;;;;7.62;100.00;101236.91;4977199;28;20038;-81
2023/02/23 10:38:15;;;;;;;90.25;32.20;;;;;;;7.65;100.00;101234.06;4997301;28;20180;-82
2023/02/23 10:40:43;;;;;;;90.70;32.72;;;;;;;7.63;100.00;101241.97;4991800;28;20034;-81
2023/02/23 10:43:11;;;;;;;89.35;33.05;;;;;;;7.64;100.00;101240.19;4966015;28;20038;-81
2023/02/23 10:45:49;;;;;;;87.60;32.13;;;;;;;7.70;100.00;101231.94;4995818;28;20416;-81
2023/02/23 10:48:22;;;;;;;86.65;33.28;;;;;;;7.66;100.00;101225.38;4977214;28;20030;-81
2023/02/23 10:50:49;;;;;;;90.38;33.20;;;;;;;7.67;100.00;101227.03;4974608;28;20046;-82
2023/02/23 10:53:15;;;;;;;93.07;33.53;;;;;;;7.63;100.00;101225.63;4993200;28;20035;-82
2023/02/23 10:55:43;;;;;;;93.18;33.65;;;;;;;7.59;100.00;101233.66;4957808;28;20118;-81
2023/02/23 10:58:16;;;;;;;92.68;34.28;;;;;;;7.62;100.00;101237.72;4976298;28;20038;-81
2023/02/23 11:00:51;;;;;;;95.93;35.83;;;;;;;7.61;100.00;101236.09;4991204;28;20038;-81
2023/02/23 11:03:41;;;;;;;96.80;34.08;;;;;;;7.63;100.00;101225.63;4973952;28;20038;-82
2023/02/23 11:06:27;;;;;;;119.65;42.55;;;;;;;7.63;100.00;101239.38;4986130;28;20054;-82
2023/02/23 11:08:54;;;;;;;92.82;35.75;;;;;;;7.71;100.00;101236.16;4988361;28;20408;-82
2023/02/23 11:11:32;;;;;;;87.47;32.47;;;;;;;7.79;100.00;101237.16;4970699;28;20113;-81
2023/02/23 11:14:14;;;;;;;92.97;34.03;;;;;;;7.86;100.00;101240.06;4984248;28;20031;-82
2023/02/23 11:16:40;;;;;;;90.38;33.15;;;;;;;7.83;100.00;101236.91;4973056;28;20039;-79
2023/02/23 11:19:22;;;;;;;80.38;30.80;;;;;;;7.80;100.00;101240.56;4994613;28;20058;-81
2023/02/23 11:21:51;;;;;;;73.43;30.30;;;;;;;7.78;100.00;101240.69;4989762;28;20042;-80
2023/02/23 11:24:25;;;;;;;73.90;27.30;;;;;;;7.86;100.00;101239.25;4975287;28;20031;-81
2023/02/23 11:26:53;;;;;;;69.68;25.15;;;;;;;7.78;100.00;101232.94;5009068;28;20050;-81
2023/02/23 11:29:32;;;;;;;65.00;25.98;;;;;;;7.71;100.00;101236.16;4975499;28;20075;-82
2023/02/23 11:31:59;;;;;;;71.47;27.02;;;;;;;7.63;100.00;101234.22;4988008;28;20042;-82
2023/02/23 11:34:28;;;;;;;69.97;27.00;;;;;;;7.57;100.00;101232.13;4972509;28;20027;-81
2023/02/23 11:37:00;;;;;;;75.10;26.77;;;;;;;7.55;100.00;101228.84;4973614;28;20070;-82
2023/02/23 11:39:26;;;;;;;70.03;25.70;;;;;;;7.61;100.00;101230.94;4962131;28;20042;-82
2023/02/23 11:42:11;;;;;;;76.50;27.25;;;;;;;7.66;100.00;101228.78;4989740;28;20034;-82
2023/02/23 11:44:37;;;;;;;63.35;25.67;;;;;;;7.82;100.00;101230.94;4984160;28;20108;-82
2023/02/23 11:47:03;;;;;;;68.95;25.23;;;;;;;7.85;100.00;101229.84;4968536;28;20505;-82
2023/02/23 11:49:34;;;;;;;65.88;24.40;;;;;;;7.90;100.00;101231.09;4978268;28;20034;-81
2023/02/23 11:52:00;;;;;;;54.00;22.00;;;;;;;8.01;100.00;101227.63;4970263;28;20027;-81
2023/02/23 11:54:32;;;;;;;59.47;21.85;;;;;;;8.01;100.00;101229.41;4975061;28;20436;-82
2023/02/23 11:57:01;;;;;;;57.25;23.98;;;;;;;8.03;100.00;101227.50;4985972;28;20071;-81
2023/02/23 11:59:37;;;;;;;55.53;22.20;;;;;;;8.13;100.00;101225.78;4979072;28;20473;-79
2023/02/23 12:02:18;;;;;;;49.50;21.60;;;;;;;8.13;100.00;101225.78;4971826;28;20031;-81
2023/02/23 12:04:48;;;;;;;56.75;21.88;;;;;;;8.23;100.00;101224.06;4975145;28;20065;-81
2023/02/23 12:07:24;;;;;;;56.45;19.67;;;;;;;8.31;100.00;101219.06;4982839;28;20041;-82
2023/02/23 12:10:00;;;;;;;45.05;18.90;;;;;;;8.20;100.00;101221.72;5001461;28;20042;-81
2023/02/23 12:12:28;;;;;;;47.50;18.60;;;;;;;8.19;100.00;101218.34;4991737;28;20054;-82
2023/02/23 12:15:10;;;;;;;51.95;19.10;;;;;;;8.24;100.00;101220.50;4967375;28;20575;-82
2023/02/23 12:17:43;;;;;;;46.95;19.92;;;;;;;8.29;100.00;101209.81;4988815;28;20045;-82
2023/02/23 12:20:17;;;;;;;51.70;20.48;;;;;;;8.11;100.00;101212.16;4988126;28;20038;-81
2023/02/23 12:22:48;;;;;;;47.15;19.13;;;;;;;8.34;100.00;101212.78;4991187;28;20173;-82
2023/02/23 12:25:26;;;;;;;50.17;20.60;;;;;;;8.31;100.00;101206.13;4975539;28;20039;-79
2023/02/23 12:28:11;;;;;;;46.80;17.63;;;;;;;8.33;100.00;101209.41;4957114;28;20419;-81
2023/02/23 12:30:45;;;;;;;47.75;19.85;;;;;;;8.37;100.00;101208.19;4989609;28;20566;-82
2023/02/23 12:33:28;;;;;;;56.60;19.48;;;;;;;8.34;100.00;101218.81;4976266;28;20030;-82
2023/02/23 12:36:02;;;;;;;48.97;19.00;;;;;;;8.46;100.00;101218.72;4983288;28;20042;-82